Time;durP1;ratioP1;P1;durP2;ratioP2;P2;SDS_P1;SDS_P2;PMS_P1;PMS_P2;Temp;Humidity;BMP_temperature;BMP_pressure;BME280_temperature;BME280_humidity;BME280_pressure;Samples;Min_cycle;Max_cycle;Signal;HPM_P1;HPM_P2
2022/03/31 00:00:15;;;;;;;2.55;1.92;;;;;;;;;;4957303;28;89102;-67
2022/03/31 00:02:41;;;;;;;1.75;1.65;;;;;;;;;;4957940;28;88081;-67
2022/03/31 00:05:08;;;;;;;1.88;1.75;;;;;;;;;;4957328;28;88933;-67
2022/03/31 00:07:34;;;;;;;3.05;1.50;;;;;;;;;;4958060;28;87760;-68
2022/03/31 00:10:01;;;;;;;3.03;2.03;;;;;;;;;;4960375;28;88430;-67
2022/03/31 00:12:27;;;;;;;2.03;1.92;;;;;;;;;;4957704;28;88826;-67
2022/03/31 00:14:53;;;;;;;1.70;1.40;;;;;;;;;;4957024;28;88705;-67
2022/03/31 00:17:19;;;;;;;2.92;1.80;;;;;;;;;;4957908;28;90225;-67
2022/03/31 00:19:46;;;;;;;2.38;1.45;;;;;;;;;;4957288;28;88742;-67
2022/03/31 00:22:29;;;;;;;1.30;1.20;;;;;;;;;;4958246;28;88953;-66
2022/03/31 00:24:55;;;;;;;2.55;1.27;;;;;;;;;;4957622;28;88708;-67
2022/03/31 00:27:21;;;;;;;1.85;1.20;;;;;;;;;;4957581;28;89040;-67
2022/03/31 00:29:48;;;;;;;1.45;1.20;;;;;;;;;;4957536;28;87979;-67
2022/03/31 00:32:14;;;;;;;1.10;1.10;;;;;;;;;;4960603;28;87532;-67
2022/03/31 00:34:40;;;;;;;1.02;1.02;;;;;;;;;;4957938;28;89039;-67
2022/03/31 00:37:27;;;;;;;1.02;0.90;;;;;;;;;;4957246;28;88742;-67
2022/03/31 00:39:56;;;;;;;1.58;0.88;;;;;;;;;;4956888;28;89732;-67
2022/03/31 00:42:23;;;;;;;1.40;1.30;;;;;;;;;;4957096;28;88072;-65
2022/03/31 00:44:50;;;;;;;4.60;1.00;;;;;;;;;;4957479;28;87994;-66
2022/03/31 00:47:17;;;;;;;0.80;0.80;;;;;;;;;;4957621;28;89416;-67
2022/03/31 00:49:44;;;;;;;0.75;0.75;;;;;;;;;;4957397;28;88954;-67
2022/03/31 00:52:10;;;;;;;1.10;0.90;;;;;;;;;;4956712;28;89824;-67
2022/03/31 00:54:37;;;;;;;0.95;0.80;;;;;;;;;;4960175;28;88646;-67
2022/03/31 00:57:05;;;;;;;2.75;0.60;;;;;;;;;;4957765;28;88572;-67
2022/03/31 00:59:31;;;;;;;0.90;0.90;;;;;;;;;;4957410;28;89012;-67
2022/03/31 01:01:59;;;;;;;2.55;1.00;;;;;;;;;;4957065;28;90044;-67
2022/03/31 01:04:26;;;;;;;1.25;0.90;;;;;;;;;;4956832;28;88761;-67
2022/03/31 01:06:52;;;;;;;3.38;1.00;;;;;;;;;;4956916;28;89948;-67
2022/03/31 01:09:19;;;;;;;1.00;1.00;;;;;;;;;;4957059;28;88042;-67
2022/03/31 01:11:45;;;;;;;1.45;0.90;;;;;;;;;;4957038;28;88757;-67
2022/03/31 01:14:12;;;;;;;1.17;1.00;;;;;;;;;;4956750;28;89443;-67
2022/03/31 01:16:39;;;;;;;0.80;0.80;;;;;;;;;;4959640;28;88420;-67
2022/03/31 01:19:07;;;;;;;1.25;0.90;;;;;;;;;;4956550;28;89830;-67
2022/03/31 01:21:41;;;;;;;0.88;0.88;;;;;;;;;;4957259;28;88881;-67
2022/03/31 01:24:08;;;;;;;2.08;1.17;;;;;;;;;;4955749;28;88143;-67
2022/03/31 01:26:36;;;;;;;0.73;0.70;;;;;;;;;;4956139;28;88661;-67
2022/03/31 01:29:02;;;;;;;0.60;0.60;;;;;;;;;;4956927;28;88950;-67
2022/03/31 01:31:29;;;;;;;0.93;0.73;;;;;;;;;;4956428;28;89149;-67
2022/03/31 01:33:55;;;;;;;0.60;0.60;;;;;;;;;;4957182;28;89041;-67
2022/03/31 01:36:21;;;;;;;0.70;0.70;;;;;;;;;;4959835;28;88741;-68
2022/03/31 01:38:53;;;;;;;1.13;0.70;;;;;;;;;;4956252;28;88959;-67
2022/03/31 01:41:20;;;;;;;2.20;0.73;;;;;;;;;;4960198;28;88026;-67
2022/03/31 01:43:46;;;;;;;0.70;0.70;;;;;;;;;;4960386;28;88514;-67
2022/03/31 01:46:13;;;;;;;0.80;0.80;;;;;;;;;;4959920;28;88253;-68
2022/03/31 01:48:39;;;;;;;1.08;0.98;;;;;;;;;;4960109;28;88269;-67
2022/03/31 01:51:07;;;;;;;1.10;1.00;;;;;;;;;;4959163;28;88798;-67
2022/03/31 01:53:34;;;;;;;1.45;1.02;;;;;;;;;;4950510;28;88788;-67
2022/03/31 01:56:00;;;;;;;1.05;0.98;;;;;;;;;;4966941;28;89331;-67
2022/03/31 01:58:27;;;;;;;0.80;0.80;;;;;;;;;;4962511;28;88631;-67
2022/03/31 02:00:53;;;;;;;3.95;1.10;;;;;;;;;;4960214;28;88762;-67
2022/03/31 02:03:19;;;;;;;1.65;1.00;;;;;;;;;;4960211;28;88606;-67
2022/03/31 02:05:46;;;;;;;0.75;0.75;;;;;;;;;;4957956;28;89633;-67
2022/03/31 02:08:12;;;;;;;0.80;0.75;;;;;;;;;;4960207;28;88681;-67
2022/03/31 02:10:39;;;;;;;0.88;0.88;;;;;;;;;;4959629;28;88574;-67
2022/03/31 02:13:07;;;;;;;1.45;1.02;;;;;;;;;;4959667;28;89915;-67
2022/03/31 02:15:34;;;;;;;1.20;0.77;;;;;;;;;;4959809;28;88033;-67
2022/03/31 02:18:03;;;;;;;0.95;0.95;;;;;;;;;;4958269;28;88776;-67
2022/03/31 02:20:30;;;;;;;1.00;0.88;;;;;;;;;;4962206;28;88915;-67
2022/03/31 02:23:00;;;;;;;0.90;0.90;;;;;;;;;;4959904;28;89313;-67
2022/03/31 02:25:27;;;;;;;2.72;1.27;;;;;;;;;;4959785;28;89119;-67
2022/03/31 02:27:53;;;;;;;0.90;0.90;;;;;;;;;;4959327;28;88192;-67
2022/03/31 02:30:20;;;;;;;0.98;0.80;;;;;;;;;;4959253;28;88400;-67
2022/03/31 02:32:46;;;;;;;0.95;0.90;;;;;;;;;;4959498;28;88876;-66
2022/03/31 02:35:13;;;;;;;0.82;0.82;;;;;;;;;;4959833;28;87836;-67
2022/03/31 02:37:39;;;;;;;2.45;1.00;;;;;;;;;;4959760;28;87988;-67
2022/03/31 02:40:06;;;;;;;1.15;0.88;;;;;;;;;;4959142;28;88996;-67
2022/03/31 02:42:32;;;;;;;0.98;0.88;;;;;;;;;;4961500;28;88835;-67
2022/03/31 02:44:59;;;;;;;2.50;1.10;;;;;;;;;;4959276;28;88877;-67
2022/03/31 02:47:25;;;;;;;5.28;0.90;;;;;;;;;;4958535;28;88056;-67
2022/03/31 02:49:51;;;;;;;1.75;0.90;;;;;;;;;;4959250;28;89699;-67
2022/03/31 02:52:17;;;;;;;1.00;0.90;;;;;;;;;;4958614;28;89468;-67
2022/03/31 02:57:28;;;;;;;1.75;1.00;;;;;;;;;;4959145;28;88469;-67
2022/03/31 02:59:55;;;;;;;0.93;0.88;;;;;;;;;;4959229;28;88355;-67
2022/03/31 03:02:21;;;;;;;1.23;1.00;;;;;;;;;;4958704;28;88186;-67
2022/03/31 03:04:47;;;;;;;2.05;1.38;;;;;;;;;;4961934;28;88538;-67
2022/03/31 03:07:15;;;;;;;0.80;0.80;;;;;;;;;;4957917;28;89420;-67
2022/03/31 03:09:41;;;;;;;1.20;1.05;;;;;;;;;;4958564;28;89679;-69
2022/03/31 03:12:09;;;;;;;0.98;0.80;;;;;;;;;;4958957;28;89838;-67
2022/03/31 03:14:35;;;;;;;3.92;1.20;;;;;;;;;;4945148;28;88235;-67
2022/03/31 03:17:01;;;;;;;1.15;1.00;;;;;;;;;;4958304;28;88076;-67
2022/03/31 03:19:27;;;;;;;1.20;1.08;;;;;;;;;;4958340;28;88654;-67
2022/03/31 03:21:54;;;;;;;1.00;1.00;;;;;;;;;;4958250;28;88768;-67
2022/03/31 03:24:22;;;;;;;1.27;1.17;;;;;;;;;;4961747;28;88569;-67
2022/03/31 03:26:48;;;;;;;4.45;1.00;;;;;;;;;;4958793;28;88730;-67
2022/03/31 03:29:15;;;;;;;0.98;0.98;;;;;;;;;;4957673;28;88598;-67
2022/03/31 03:31:41;;;;;;;1.08;1.00;;;;;;;;;;4957604;28;88665;-67
2022/03/31 03:34:09;;;;;;;1.08;1.00;;;;;;;;;;4958307;28;88027;-67
2022/03/31 03:36:35;;;;;;;0.93;0.93;;;;;;;;;;4956562;28;88080;-67
2022/03/31 03:39:03;;;;;;;3.35;1.20;;;;;;;;;;4957978;28;88880;-67
2022/03/31 03:41:29;;;;;;;1.65;1.10;;;;;;;;;;4958271;28;87989;-67
2022/03/31 03:43:55;;;;;;;2.78;1.20;;;;;;;;;;4957550;28;89650;-67
2022/03/31 03:46:23;;;;;;;2.78;1.33;;;;;;;;;;4961211;28;88650;-67
2022/03/31 03:48:49;;;;;;;1.75;1.23;;;;;;;;;;4958578;28;88739;-68
2022/03/31 03:51:15;;;;;;;2.53;1.27;;;;;;;;;;4957719;28;89605;-67
2022/03/31 03:53:42;;;;;;;1.23;1.10;;;;;;;;;;4957693;28;89774;-67
2022/03/31 03:56:08;;;;;;;1.77;1.30;;;;;;;;;;4957660;28;89583;-67
2022/03/31 03:58:35;;;;;;;2.05;1.40;;;;;;;;;;4958156;28;89249;-67
2022/03/31 04:01:01;;;;;;;1.70;1.30;;;;;;;;;;4965215;28;89797;-67
2022/03/31 04:03:28;;;;;;;1.33;1.23;;;;;;;;;;4961389;28;88043;-67
2022/03/31 04:05:55;;;;;;;2.90;1.30;;;;;;;;;;4957356;28;89650;-67
2022/03/31 04:08:21;;;;;;;2.53;1.60;;;;;;;;;;4960502;28;88114;-67
2022/03/31 04:10:47;;;;;;;3.70;2.05;;;;;;;;;;4957834;28;88666;-67
2022/03/31 04:13:14;;;;;;;1.83;1.60;;;;;;;;;;4958188;28;87268;-67
2022/03/31 04:15:40;;;;;;;1.50;1.40;;;;;;;;;;4957380;28;88318;-67
2022/03/31 04:18:08;;;;;;;1.55;1.40;;;;;;;;;;4957675;28;89877;-68
2022/03/31 04:20:35;;;;;;;1.45;1.35;;;;;;;;;;4957196;28;88797;-67
2022/03/31 04:23:01;;;;;;;1.95;1.63;;;;;;;;;;4957430;28;90536;-67
2022/03/31 04:25:27;;;;;;;3.33;1.80;;;;;;;;;;4957495;28;88987;-67
2022/03/31 04:27:54;;;;;;;1.77;1.67;;;;;;;;;;4957798;28;88038;-68
2022/03/31 04:30:21;;;;;;;1.60;1.50;;;;;;;;;;4960277;28;87942;-67
2022/03/31 04:32:48;;;;;;;1.42;1.33;;;;;;;;;;4957947;28;88824;-67
2022/03/31 04:35:15;;;;;;;1.70;1.60;;;;;;;;;;4957647;28;88449;-67
2022/03/31 04:37:41;;;;;;;3.67;1.70;;;;;;;;;;4957606;28;88237;-67
2022/03/31 04:40:08;;;;;;;1.65;1.55;;;;;;;;;;4957271;28;88064;-67
2022/03/31 04:42:35;;;;;;;2.72;1.30;;;;;;;;;;4957593;28;88550;-67
2022/03/31 04:45:02;;;;;;;1.55;1.30;;;;;;;;;;4956953;28;89705;-67
2022/03/31 04:47:29;;;;;;;1.75;1.65;;;;;;;;;;4958091;28;89286;-67
2022/03/31 04:49:55;;;;;;;1.92;1.60;;;;;;;;;;4957459;28;89651;-66
2022/03/31 04:52:21;;;;;;;2.80;1.50;;;;;;;;;;4959875;28;90176;-65
2022/03/31 04:54:48;;;;;;;1.77;1.35;;;;;;;;;;4957138;28;89879;-67
2022/03/31 04:57:15;;;;;;;2.05;1.45;;;;;;;;;;4957084;28;88999;-67
2022/03/31 04:59:42;;;;;;;2.55;1.40;;;;;;;;;;4957145;28;88109;-67
2022/03/31 05:02:09;;;;;;;1.50;1.40;;;;;;;;;;4957596;28;88695;-67
2022/03/31 05:04:35;;;;;;;2.33;1.38;;;;;;;;;;4957164;28;88816;-67
2022/03/31 05:07:02;;;;;;;1.52;1.30;;;;;;;;;;4956272;28;88085;-67
2022/03/31 05:09:28;;;;;;;4.15;1.30;;;;;;;;;;4957214;28;88734;-67
2022/03/31 05:11:55;;;;;;;2.17;1.67;;;;;;;;;;4957183;28;89935;-67
2022/03/31 05:14:21;;;;;;;2.15;1.58;;;;;;;;;;4960764;28;87970;-67
2022/03/31 05:16:47;;;;;;;3.75;1.98;;;;;;;;;;4960013;28;88800;-67
2022/03/31 05:19:14;;;;;;;1.92;1.73;;;;;;;;;;4960862;28;88074;-68
2022/03/31 05:21:40;;;;;;;2.60;1.60;;;;;;;;;;4959535;28;89787;-67
2022/03/31 05:24:07;;;;;;;4.15;2.17;;;;;;;;;;4960144;28;88807;-67
2022/03/31 05:26:33;;;;;;;9.13;1.80;;;;;;;;;;4960414;28;88378;-67
2022/03/31 05:29:00;;;;;;;4.32;2.20;;;;;;;;;;4959913;28;88165;-67
2022/03/31 05:31:26;;;;;;;2.80;2.03;;;;;;;;;;4959843;28;90066;-67
2022/03/31 05:33:52;;;;;;;6.72;2.72;;;;;;;;;;4962479;28;88820;-67
2022/03/31 05:36:19;;;;;;;3.17;1.85;;;;;;;;;;4959598;28;88773;-67
2022/03/31 05:38:45;;;;;;;5.80;2.10;;;;;;;;;;4959705;28;90518;-67
2022/03/31 05:41:11;;;;;;;4.43;2.03;;;;;;;;;;4960011;28;88787;-67
2022/03/31 05:43:38;;;;;;;9.40;1.85;;;;;;;;;;4960121;28;88900;-67
2022/03/31 05:46:04;;;;;;;2.65;1.60;;;;;;;;;;4960175;28;88123;-67
2022/03/31 05:48:30;;;;;;;2.13;1.58;;;;;;;;;;4959280;28;89780;-67
2022/03/31 05:50:56;;;;;;;5.30;1.90;;;;;;;;;;4958705;28;89347;-67
2022/03/31 05:53:23;;;;;;;5.22;2.00;;;;;;;;;;4960456;28;88126;-67
2022/03/31 05:55:49;;;;;;;3.28;1.60;;;;;;;;;;4961708;28;91747;-67
2022/03/31 05:58:16;;;;;;;5.13;1.90;;;;;;;;;;4959190;28;88857;-67
2022/03/31 06:00:42;;;;;;;3.08;1.98;;;;;;;;;;4959934;28;90576;-67
2022/03/31 06:03:08;;;;;;;3.58;1.80;;;;;;;;;;4960094;28;89026;-67
2022/03/31 06:05:35;;;;;;;3.17;1.77;;;;;;;;;;4959283;28;88072;-67
2022/03/31 06:08:01;;;;;;;3.70;1.90;;;;;;;;;;4959688;28;88620;-67
2022/03/31 06:10:28;;;;;;;5.38;1.92;;;;;;;;;;4956164;28;88831;-67
2022/03/31 06:12:54;;;;;;;7.65;1.85;;;;;;;;;;4958117;28;88194;-67
2022/03/31 06:15:20;;;;;;;6.82;1.98;;;;;;;;;;4960485;28;89627;-67
2022/03/31 06:17:47;;;;;;;3.55;2.00;;;;;;;;;;4962587;28;89057;-66
2022/03/31 06:20:13;;;;;;;4.82;1.88;;;;;;;;;;4959704;28;88660;-69
2022/03/31 06:22:39;;;;;;;4.60;2.15;;;;;;;;;;4959060;28;89554;-69
2022/03/31 06:25:11;;;;;;;4.43;2.28;;;;;;;;;;4958765;28;88054;-68
2022/03/31 06:27:38;;;;;;;6.78;2.03;;;;;;;;;;4959949;28;89673;-68
2022/03/31 06:30:04;;;;;;;5.53;1.80;;;;;;;;;;4951165;28;89142;-67
2022/03/31 06:32:31;;;;;;;4.88;1.90;;;;;;;;;;4949950;28;88071;-67
2022/03/31 06:34:59;;;;;;;3.75;1.98;;;;;;;;;;4959853;28;88417;-68
2022/03/31 06:37:26;;;;;;;4.75;2.35;;;;;;;;;;4959745;28;88860;-67
2022/03/31 06:39:52;;;;;;;3.08;1.80;;;;;;;;;;4962698;28;89083;-68
2022/03/31 06:42:18;;;;;;;4.50;2.22;;;;;;;;;;4959582;28;88863;-69
2022/03/31 06:44:44;;;;;;;4.00;1.92;;;;;;;;;;4959256;28;88396;-68
2022/03/31 06:47:11;;;;;;;5.70;2.22;;;;;;;;;;4959073;28;89010;-68
2022/03/31 06:49:37;;;;;;;6.85;1.98;;;;;;;;;;4959524;28;89388;-69
2022/03/31 06:52:04;;;;;;;9.38;2.13;;;;;;;;;;4957806;28;88434;-68
2022/03/31 06:54:31;;;;;;;4.90;2.00;;;;;;;;;;4957083;28;88401;-68
2022/03/31 06:56:57;;;;;;;2.95;1.65;;;;;;;;;;4970178;28;88860;-68
2022/03/31 06:59:23;;;;;;;9.57;2.47;;;;;;;;;;4959665;28;88065;-68
2022/03/31 07:01:50;;;;;;;9.10;2.20;;;;;;;;;;4961690;28;88394;-68
2022/03/31 07:04:16;;;;;;;12.55;1.98;;;;;;;;;;4959750;28;88281;-69
2022/03/31 07:06:43;;;;;;;12.70;2.53;;;;;;;;;;4958570;28;88016;-68
2022/03/31 07:09:09;;;;;;;7.07;1.98;;;;;;;;;;4959404;28;89145;-68
2022/03/31 07:11:35;;;;;;;2.10;1.63;;;;;;;;;;4958143;28;88766;-69
2022/03/31 07:14:05;;;;;;;11.47;2.00;;;;;;;;;;4957186;28;89527;-68
2022/03/31 07:16:32;;;;;;;10.60;2.25;;;;;;;;;;4958387;28;90108;-69
2022/03/31 07:19:03;;;;;;;5.40;2.05;;;;;;;;;;4958519;28;88062;-69
2022/03/31 07:21:31;;;;;;;3.28;1.75;;;;;;;;;;4957632;28;91302;-69
2022/03/31 07:23:58;;;;;;;2.97;1.90;;;;;;;;;;4961190;28;88087;-70
2022/03/31 07:26:24;;;;;;;6.50;2.60;;;;;;;;;;4958780;28;89871;-70
2022/03/31 07:28:51;;;;;;;4.85;2.42;;;;;;;;;;4959236;28;88151;-70
2022/03/31 07:31:17;;;;;;;3.30;1.92;;;;;;;;;;4940552;28;88030;-70
2022/03/31 07:33:44;;;;;;;6.18;2.17;;;;;;;;;;4939410;28;87941;-71
2022/03/31 07:36:10;;;;;;;5.53;2.10;;;;;;;;;;4938824;28;90188;-70
2022/03/31 07:38:36;;;;;;;3.78;1.70;;;;;;;;;;4938266;28;88061;-70
2022/03/31 07:41:03;;;;;;;4.00;2.35;;;;;;;;;;4939256;28;88571;-70
2022/03/31 07:43:30;;;;;;;6.13;2.45;;;;;;;;;;4942081;28;90219;-71
2022/03/31 07:45:56;;;;;;;4.53;2.33;;;;;;;;;;4973747;28;88835;-70
2022/03/31 07:48:22;;;;;;;11.48;2.45;;;;;;;;;;4958694;28;88884;-70
2022/03/31 07:50:48;;;;;;;10.35;2.38;;;;;;;;;;4958235;28;88303;-70
2022/03/31 07:53:17;;;;;;;6.43;2.20;;;;;;;;;;4958970;28;88863;-71
2022/03/31 07:55:43;;;;;;;6.68;2.50;;;;;;;;;;4958243;28;88173;-70
2022/03/31 07:58:10;;;;;;;4.10;2.30;;;;;;;;;;4958246;28;88074;-70
2022/03/31 08:00:36;;;;;;;4.55;2.20;;;;;;;;;;4957920;28;90123;-70
2022/03/31 08:03:02;;;;;;;5.28;2.80;;;;;;;;;;4958404;28;89077;-70
2022/03/31 08:05:30;;;;;;;2.22;2.03;;;;;;;;;;4956063;28;88085;-70
2022/03/31 08:07:57;;;;;;;6.25;2.42;;;;;;;;;;4938661;28;88998;-71
2022/03/31 08:10:24;;;;;;;10.93;2.75;;;;;;;;;;4938763;28;88683;-71
2022/03/31 08:12:51;;;;;;;4.38;2.72;;;;;;;;;;4939041;28;88972;-71
2022/03/31 08:15:17;;;;;;;3.08;2.40;;;;;;;;;;4941882;28;89183;-70
2022/03/31 08:17:46;;;;;;;4.18;2.50;;;;;;;;;;4958894;28;88768;-71
2022/03/31 08:20:13;;;;;;;7.15;2.72;;;;;;;;;;4958302;28;88402;-71
2022/03/31 08:22:39;;;;;;;5.00;2.65;;;;;;;;;;4957910;28;89038;-71
2022/03/31 08:25:09;;;;;;;6.47;2.60;;;;;;;;;;4957249;28;88915;-70
2022/03/31 08:27:35;;;;;;;5.35;3.03;;;;;;;;;;4960887;28;89350;-71
2022/03/31 08:30:04;;;;;;;3.55;3.00;;;;;;;;;;4957842;28;87997;-70
2022/03/31 08:32:34;;;;;;;8.35;3.22;;;;;;;;;;4972941;28;88512;-70
2022/03/31 08:35:02;;;;;;;5.47;3.00;;;;;;;;;;4957728;28;88945;-70
2022/03/31 08:37:33;;;;;;;5.38;2.70;;;;;;;;;;4958031;28;90857;-71
2022/03/31 08:40:00;;;;;;;3.15;2.50;;;;;;;;;;4957895;28;88617;-70
2022/03/31 08:42:26;;;;;;;2.78;2.55;;;;;;;;;;4958253;28;88145;-70
2022/03/31 08:44:55;;;;;;;5.63;3.33;;;;;;;;;;4958154;28;88760;-70
2022/03/31 08:47:22;;;;;;;3.78;3.15;;;;;;;;;;4938068;28;88834;-71
2022/03/31 08:50:08;;;;;;;3.83;2.92;;;;;;;;;;4943882;28;92152;-70
2022/03/31 08:52:35;;;;;;;5.28;3.33;;;;;;;;;;4941480;28;88301;-71
2022/03/31 08:55:01;;;;;;;3.30;3.00;;;;;;;;;;4941537;28;88970;-71
2022/03/31 08:57:38;;;;;;;4.45;3.35;;;;;;;;;;4941453;28;87880;-71
2022/03/31 09:00:05;;;;;;;6.18;3.60;;;;;;;;;;4941640;28;89113;-70
2022/03/31 09:02:36;;;;;;;6.05;3.67;;;;;;;;;;4941054;28;88892;-70
2022/03/31 09:05:04;;;;;;;4.15;3.28;;;;;;;;;;4953551;28;88025;-70
2022/03/31 09:07:30;;;;;;;5.00;3.17;;;;;;;;;;4959568;28;88869;-71
2022/03/31 09:09:56;;;;;;;4.30;3.90;;;;;;;;;;4960978;28;89984;-71
2022/03/31 09:12:26;;;;;;;4.47;3.50;;;;;;;;;;4963677;28;88076;-70
2022/03/31 09:15:13;;;;;;;4.72;3.67;;;;;;;;;;4958639;28;89143;-71
2022/03/31 09:17:39;;;;;;;4.85;3.83;;;;;;;;;;4960927;28;88773;-71
2022/03/31 09:20:06;;;;;;;4.50;3.85;;;;;;;;;;4960089;28;88445;-70
2022/03/31 09:22:43;;;;;;;6.13;4.13;;;;;;;;;;4960691;28;88836;-70
2022/03/31 09:25:10;;;;;;;4.72;4.22;;;;;;;;;;4961384;28;87951;-70
2022/03/31 09:27:37;;;;;;;6.30;4.30;;;;;;;;;;4959388;28;88776;-67
2022/03/31 09:30:04;;;;;;;6.18;4.32;;;;;;;;;;4954031;28;89058;-68
2022/03/31 09:32:30;;;;;;;5.20;4.10;;;;;;;;;;4941457;28;87809;-68
2022/03/31 09:35:03;;;;;;;7.28;4.32;;;;;;;;;;4944579;28;88952;-67
2022/03/31 09:37:32;;;;;;;6.28;4.32;;;;;;;;;;4957882;28;88765;-68
2022/03/31 09:39:58;;;;;;;7.07;4.78;;;;;;;;;;4957375;28;88950;-69
2022/03/31 09:42:24;;;;;;;6.68;4.65;;;;;;;;;;4957914;28;89534;-69
2022/03/31 09:44:57;;;;;;;10.25;4.53;;;;;;;;;;4978103;28;88812;-70
2022/03/31 09:47:26;;;;;;;8.18;5.05;;;;;;;;;;4939204;28;88646;-69
2022/03/31 09:49:53;;;;;;;8.18;4.80;;;;;;;;;;4965372;28;88311;-69
2022/03/31 09:52:19;;;;;;;7.53;5.10;;;;;;;;;;4958154;28;88021;-69
2022/03/31 09:54:47;;;;;;;8.00;5.35;;;;;;;;;;4962942;28;88584;-69
2022/03/31 09:57:14;;;;;;;7.97;5.40;;;;;;;;;;4960716;28;87926;-70
2022/03/31 09:59:42;;;;;;;8.60;5.07;;;;;;;;;;4959456;28;88176;-69
2022/03/31 10:02:08;;;;;;;8.57;5.85;;;;;;;;;;4959812;28;88751;-70
2022/03/31 10:04:35;;;;;;;8.10;5.65;;;;;;;;;;4958786;28;88952;-70
2022/03/31 10:07:04;;;;;;;8.77;5.88;;;;;;;;;;4958765;28;89644;-71
2022/03/31 10:09:32;;;;;;;11.15;6.18;;;;;;;;;;4959772;28;89646;-69
2022/03/31 10:12:10;;;;;;;8.20;5.55;;;;;;;;;;4958500;28;88090;-70
2022/03/31 10:14:43;;;;;;;6.90;5.43;;;;;;;;;;4958602;28;89891;-69
2022/03/31 10:17:10;;;;;;;9.23;5.32;;;;;;;;;;4962088;28;88986;-69
2022/03/31 10:19:39;;;;;;;12.48;5.25;;;;;;;;;;4958323;28;89451;-69
2022/03/31 10:24:41;;;;;;;8.43;4.80;;;;;;;;;;4959429;28;88149;-70
2022/03/31 10:24:59;;;;;;;5.18;3.83;;;;;;;;;;4959547;28;88158;-70
2022/03/31 10:27:32;;;;;;;5.20;3.95;;;;;;;;;;4958044;28;88219;-70
2022/03/31 10:30:14;;;;;;;4.30;3.78;;;;;;;;;;4956325;28;90564;-69
2022/03/31 10:32:52;;;;;;;6.20;4.10;;;;;;;;;;4959429;28;88058;-68
2022/03/31 10:35:22;;;;;;;4.32;3.60;;;;;;;;;;4959681;28;88628;-69
2022/03/31 10:37:48;;;;;;;4.60;4.18;;;;;;;;;;4959888;28;89662;-67
2022/03/31 10:40:26;;;;;;;3.88;3.47;;;;;;;;;;4962508;28;88038;-67
2022/03/31 10:42:56;;;;;;;3.72;3.42;;;;;;;;;;4959358;28;89907;-67
2022/03/31 10:45:32;;;;;;;2.83;2.63;;;;;;;;;;4966846;28;89211;-67
2022/03/31 10:47:58;;;;;;;3.17;2.88;;;;;;;;;;4960281;28;89562;-67
2022/03/31 10:50:28;;;;;;;3.33;3.03;;;;;;;;;;4959708;28;90111;-67
2022/03/31 10:52:58;;;;;;;2.80;2.60;;;;;;;;;;4958923;28;88225;-66
2022/03/31 10:55:32;;;;;;;3.10;2.80;;;;;;;;;;4959153;28;88687;-67
2022/03/31 10:57:59;;;;;;;2.85;2.65;;;;;;;;;;4959519;28;88840;-66
2022/03/31 11:00:25;;;;;;;2.30;2.20;;;;;;;;;;4959311;28;87975;-68
2022/03/31 11:02:54;;;;;;;2.85;2.58;;;;;;;;;;4961604;28;89606;-68
2022/03/31 11:05:40;;;;;;;8.75;2.50;;;;;;;;;;4957373;28;88393;-68
2022/03/31 11:08:07;;;;;;;3.65;2.47;;;;;;;;;;4957481;28;88769;-68
2022/03/31 11:10:40;;;;;;;2.70;2.50;;;;;;;;;;4959479;28;89271;-69
2022/03/31 11:13:07;;;;;;;2.13;2.03;;;;;;;;;;4958001;28;88302;-69
2022/03/31 11:15:34;;;;;;;2.92;2.70;;;;;;;;;;4959420;28;88271;-70
2022/03/31 11:18:01;;;;;;;2.10;2.00;;;;;;;;;;4957572;28;88810;-68
2022/03/31 11:20:27;;;;;;;2.40;2.30;;;;;;;;;;4957539;28;88774;-69
2022/03/31 11:22:55;;;;;;;2.28;2.17;;;;;;;;;;4958642;28;89275;-68
2022/03/31 11:25:23;;;;;;;2.28;2.17;;;;;;;;;;4970046;28;88862;-68
2022/03/31 11:27:49;;;;;;;2.30;2.10;;;;;;;;;;4958385;28;88591;-68
2022/03/31 11:30:20;;;;;;;1.98;1.88;;;;;;;;;;4957964;28;89688;-68
2022/03/31 11:32:48;;;;;;;1.98;1.88;;;;;;;;;;4958437;28;88053;-68
2022/03/31 11:35:17;;;;;;;1.80;1.70;;;;;;;;;;4958498;28;88719;-69
2022/03/31 11:37:47;;;;;;;1.60;1.50;;;;;;;;;;4957752;28;87849;-68
2022/03/31 11:40:31;;;;;;;1.90;1.80;;;;;;;;;;4945926;28;89819;-69
2022/03/31 11:42:58;;;;;;;1.63;1.60;;;;;;;;;;4956517;28;89613;-68
2022/03/31 11:45:37;;;;;;;1.65;1.55;;;;;;;;;;4958083;28;89335;-68
2022/03/31 11:48:08;;;;;;;4.40;2.00;;;;;;;;;;4961246;28;88429;-69
2022/03/31 11:50:36;;;;;;;1.60;1.60;;;;;;;;;;4958805;28;89070;-69
2022/03/31 11:53:26;;;;;;;1.77;1.67;;;;;;;;;;4958202;28;90478;-68
2022/03/31 11:56:00;;;;;;;2.33;2.20;;;;;;;;;;4958782;28;88492;-69
2022/03/31 11:58:27;;;;;;;1.80;1.70;;;;;;;;;;4957936;28;88069;-71
2022/03/31 12:00:54;;;;;;;1.92;1.83;;;;;;;;;;4958629;28;87998;-70
2022/03/31 12:03:20;;;;;;;1.67;1.58;;;;;;;;;;4958489;28;89577;-71
2022/03/31 12:05:57;;;;;;;1.80;1.70;;;;;;;;;;4955027;28;88439;-71
2022/03/31 12:08:24;;;;;;;1.90;1.80;;;;;;;;;;4970588;28;88756;-70
2022/03/31 12:10:51;;;;;;;1.70;1.60;;;;;;;;;;4977520;28;90897;-69
2022/03/31 12:13:19;;;;;;;1.67;1.58;;;;;;;;;;4958456;28;89231;-69
2022/03/31 12:15:45;;;;;;;1.77;1.67;;;;;;;;;;4958360;28;88576;-69
2022/03/31 12:18:13;;;;;;;1.60;1.50;;;;;;;;;;4957999;28;88814;-69
2022/03/31 12:20:39;;;;;;;1.40;1.40;;;;;;;;;;4957955;28;88013;-69
2022/03/31 12:23:35;;;;;;;1.50;1.40;;;;;;;;;;4957163;28;88556;-70
2022/03/31 12:26:10;;;;;;;2.75;1.42;;;;;;;;;;4947774;28;89048;-70
2022/03/31 12:28:43;;;;;;;1.50;1.40;;;;;;;;;;4958674;28;87224;-69
2022/03/31 12:31:34;;;;;;;1.02;1.02;;;;;;;;;;4960596;28;89180;-69
2022/03/31 12:34:02;;;;;;;1.10;1.10;;;;;;;;;;4958285;28;87941;-69
2022/03/31 12:36:33;;;;;;;0.95;0.95;;;;;;;;;;4956768;28;89167;-69
2022/03/31 12:39:01;;;;;;;1.17;1.17;;;;;;;;;;4958024;28;88850;-68
2022/03/31 12:41:35;;;;;;;1.20;1.20;;;;;;;;;;4957798;28;88006;-69
2022/03/31 12:44:09;;;;;;;1.35;1.27;;;;;;;;;;4957950;28;89984;-70
2022/03/31 12:46:37;;;;;;;1.17;1.17;;;;;;;;;;4957689;28;88919;-69
2022/03/31 12:49:06;;;;;;;1.25;1.10;;;;;;;;;;4957260;28;87980;-70
2022/03/31 12:51:44;;;;;;;1.40;1.30;;;;;;;;;;4957741;28;89678;-69
2022/03/31 12:54:24;;;;;;;1.00;1.00;;;;;;;;;;4961164;28;89260;-70
2022/03/31 12:56:51;;;;;;;1.15;1.13;;;;;;;;;;4957585;28;87982;-70
2022/03/31 12:59:23;;;;;;;1.20;1.20;;;;;;;;;;4957259;28;89054;-70
2022/03/31 13:02:01;;;;;;;1.30;1.20;;;;;;;;;;4956873;28;88694;-69
2022/03/31 13:04:28;;;;;;;1.25;1.15;;;;;;;;;;4957648;28;90556;-69
2022/03/31 13:06:55;;;;;;;1.30;1.30;;;;;;;;;;4956619;28;88700;-69
2022/03/31 13:09:21;;;;;;;1.08;1.08;;;;;;;;;;4957205;28;87929;-69
2022/03/31 13:11:51;;;;;;;0.90;0.90;;;;;;;;;;4957657;28;89471;-69
2022/03/31 13:14:19;;;;;;;1.10;1.10;;;;;;;;;;4957109;28;90057;-69
2022/03/31 13:16:46;;;;;;;1.38;1.27;;;;;;;;;;4960214;28;87924;-69
2022/03/31 13:19:13;;;;;;;3.55;1.30;;;;;;;;;;4957486;28;89094;-70
2022/03/31 13:21:39;;;;;;;2.13;1.38;;;;;;;;;;4957498;28;88013;-69
2022/03/31 13:24:05;;;;;;;0.93;0.93;;;;;;;;;;4956690;28;88502;-67
2022/03/31 13:26:32;;;;;;;1.35;1.25;;;;;;;;;;4955464;28;90828;-67
2022/03/31 13:29:02;;;;;;;1.50;1.00;;;;;;;;;;4956783;28;89772;-68
2022/03/31 13:31:28;;;;;;;1.30;1.20;;;;;;;;;;4957425;28;90007;-70
2022/03/31 13:33:55;;;;;;;0.85;0.85;;;;;;;;;;4950967;28;89974;-67
2022/03/31 13:36:21;;;;;;;1.17;1.15;;;;;;;;;;4949542;28;88940;-67
2022/03/31 13:38:47;;;;;;;0.90;0.90;;;;;;;;;;4955459;28;88808;-67
2022/03/31 13:41:13;;;;;;;0.90;0.90;;;;;;;;;;4959942;28;88018;-67
2022/03/31 13:43:40;;;;;;;0.82;0.82;;;;;;;;;;4959895;28;87259;-67
2022/03/31 13:46:07;;;;;;;1.52;0.90;;;;;;;;;;4960730;28;88799;-67
2022/03/31 13:48:33;;;;;;;1.30;1.20;;;;;;;;;;4960429;28;88017;-67
2022/03/31 13:50:59;;;;;;;1.00;0.98;;;;;;;;;;4959271;28;88841;-68
2022/03/31 13:53:45;;;;;;;1.38;0.90;;;;;;;;;;4959659;28;89949;-67
2022/03/31 13:56:15;;;;;;;0.90;0.90;;;;;;;;;;4955439;28;88988;-69
2022/03/31 14:01:26;;;;;;;0.93;0.93;;;;;;;;;;4959482;28;88943;-68
2022/03/31 14:03:55;;;;;;;5.57;1.23;;;;;;;;;;4960405;28;87964;-68
2022/03/31 14:06:22;;;;;;;1.55;1.42;;;;;;;;;;4959517;28;88976;-68
2022/03/31 14:08:49;;;;;;;1.52;1.42;;;;;;;;;;4963361;28;87776;-68
2022/03/31 14:11:16;;;;;;;1.10;1.10;;;;;;;;;;4959399;28;88077;-71
2022/03/31 14:13:42;;;;;;;1.55;1.45;;;;;;;;;;4959910;28;90138;-69
2022/03/31 14:16:09;;;;;;;1.55;1.45;;;;;;;;;;4959461;28;88685;-70
2022/03/31 14:18:40;;;;;;;2.58;1.30;;;;;;;;;;4958802;28;88415;-71
2022/03/31 14:21:06;;;;;;;1.67;1.58;;;;;;;;;;4962217;28;90130;-69
2022/03/31 14:23:33;;;;;;;1.85;1.75;;;;;;;;;;4959717;28;88602;-70
2022/03/31 14:26:00;;;;;;;3.55;1.52;;;;;;;;;;4959914;28;90125;-71
2022/03/31 14:28:26;;;;;;;1.67;1.58;;;;;;;;;;4959590;28;88778;-70
2022/03/31 14:30:53;;;;;;;1.80;1.70;;;;;;;;;;4959636;28;88519;-70
2022/03/31 14:33:27;;;;;;;1.50;1.40;;;;;;;;;;4960271;28;88157;-71
2022/03/31 14:35:53;;;;;;;1.67;1.58;;;;;;;;;;4959241;28;89093;-70
2022/03/31 14:38:22;;;;;;;1.30;1.20;;;;;;;;;;4959175;28;89925;-71
2022/03/31 14:40:48;;;;;;;2.47;1.45;;;;;;;;;;4958672;28;89434;-70
2022/03/31 14:43:15;;;;;;;1.83;1.73;;;;;;;;;;4962729;28;88090;-71
2022/03/31 14:45:41;;;;;;;1.52;1.42;;;;;;;;;;4958254;28;89819;-71
2022/03/31 14:48:09;;;;;;;1.67;1.58;;;;;;;;;;4959106;28;88765;-70
2022/03/31 14:50:36;;;;;;;1.33;1.23;;;;;;;;;;4959392;28;89810;-71
2022/03/31 14:53:03;;;;;;;1.30;1.30;;;;;;;;;;4958383;28;89130;-71